Time;durP1;ratioP1;P1;durP2;ratioP2;P2;SDS_P1;SDS_P2;PMS_P1;PMS_P2;Temp;Humidity;BMP_temperature;BMP_pressure;BME280_temperature;BME280_humidity;BME280_pressure;Samples;Min_cycle;Max_cycle;Signal;HPM_P1;HPM_P2
2022/10/18 00:01:56;;;;;;;0.50;0.50;;;6.20;99.90;;;;;;5114209;28;20203;-74
2022/10/18 00:04:21;;;;;;;0.63;0.63;;;6.30;99.90;;;;;;5113794;28;20199;-74
2022/10/18 00:06:47;;;;;;;0.60;0.60;;;6.30;99.90;;;;;;5114117;28;20187;-74
2022/10/18 00:09:13;;;;;;;0.40;0.40;;;6.40;99.90;;;;;;5115981;27;20192;-74
2022/10/18 00:11:39;;;;;;;0.60;0.60;;;6.40;99.90;;;;;;5134235;27;20229;-73
2022/10/18 00:14:05;;;;;;;0.50;0.50;;;6.40;99.90;;;;;;5133317;27;20195;-74
2022/10/18 00:16:31;;;;;;;0.50;0.50;;;6.50;99.90;;;;;;5134302;27;20557;-73
2022/10/18 00:18:56;;;;;;;0.55;0.55;;;6.40;99.90;;;;;;5134357;27;20187;-72
2022/10/18 00:21:24;;;;;;;0.60;0.60;;;6.50;99.90;;;;;;5132812;27;20195;-74
2022/10/18 00:23:51;;;;;;;0.50;0.50;;;6.50;99.90;;;;;;5133121;27;20195;-74
2022/10/18 00:26:18;;;;;;;0.50;0.50;;;6.50;99.90;;;;;;5123646;27;20223;-73
2022/10/18 00:28:45;;;;;;;0.60;0.60;;;6.50;99.90;;;;;;5113627;28;20187;-74
2022/10/18 00:31:23;;;;;;;0.60;0.60;;;6.50;99.90;;;;;;5113692;28;20194;-74
2022/10/18 00:33:52;;;;;;;0.52;0.52;;;6.50;99.90;;;;;;5113154;28;20210;-74
2022/10/18 00:36:18;;;;;;;0.60;0.60;;;6.60;99.90;;;;;;5113385;28;20211;-73
2022/10/18 00:38:44;;;;;;;0.60;0.60;;;6.60;99.90;;;;;;5113455;28;20191;-74
2022/10/18 00:41:13;;;;;;;0.45;0.45;;;6.60;99.90;;;;;;5113348;28;20195;-73
2022/10/18 00:43:57;;;;;;;0.60;0.60;;;6.60;99.90;;;;;;5105344;28;20196;-74
2022/10/18 00:46:23;;;;;;;0.50;0.50;;;6.60;99.90;;;;;;5092699;28;20635;-74
2022/10/18 00:48:51;;;;;;;0.60;0.60;;;6.60;99.90;;;;;;5107146;28;20589;-74
2022/10/18 00:51:18;;;;;;;0.70;0.70;;;6.60;99.90;;;;;;5113232;28;20196;-74
2022/10/18 00:53:44;;;;;;;0.60;0.60;;;6.60;99.90;;;;;;5111782;28;20191;-73
2022/10/18 00:56:11;;;;;;;0.60;0.60;;;6.60;99.90;;;;;;5112796;28;20205;-73
2022/10/18 00:58:37;;;;;;;0.68;0.68;;;6.60;99.90;;;;;;5111692;28;20203;-74
2022/10/18 01:01:02;;;;;;;0.60;0.60;;;6.60;99.90;;;;;;5112036;28;20255;-73
2022/10/18 01:03:28;;;;;;;0.60;0.60;;;6.60;99.90;;;;;;5111606;28;20200;-73
2022/10/18 01:05:54;;;;;;;0.60;0.60;;;6.70;99.90;;;;;;5113172;28;20218;-74
2022/10/18 01:09:07;;;;;;;0.60;0.60;;;6.70;99.90;;;;;;5111543;28;20199;-73
2022/10/18 01:11:48;;;;;;;0.60;0.60;;;6.70;99.90;;;;;;5069895;28;20200;-73
2022/10/18 01:14:35;;;;;;;0.60;0.60;;;6.70;99.90;;;;;;5053804;28;20273;-74
2022/10/18 01:17:12;;;;;;;0.60;0.60;;;6.70;99.90;;;;;;5070144;28;20656;-74
2022/10/18 01:19:56;;;;;;;0.60;0.60;;;6.80;99.90;;;;;;5070052;28;20200;-73
2022/10/18 01:22:38;;;;;;;0.60;0.60;;;6.80;99.90;;;;;;5069799;28;20211;-74
2022/10/18 01:25:15;;;;;;;0.68;0.68;;;6.80;99.90;;;;;;5069864;28;20602;-74
2022/10/18 01:28:03;;;;;;;0.60;0.60;;;6.70;99.90;;;;;;5070054;28;20227;-74
2022/10/18 01:30:37;;;;;;;0.60;0.60;;;6.70;99.90;;;;;;5052984;28;20238;-73
2022/10/18 01:33:17;;;;;;;0.47;0.47;;;6.70;99.90;;;;;;5053224;28;20196;-74
2022/10/18 01:35:50;;;;;;;0.50;0.50;;;6.70;99.90;;;;;;5069890;28;20249;-73
2022/10/18 01:38:18;;;;;;;0.60;0.60;;;6.70;99.90;;;;;;5053315;28;20258;-74
2022/10/18 01:40:46;;;;;;;0.60;0.60;;;6.70;99.90;;;;;;5053208;28;20687;-74
2022/10/18 01:43:13;;;;;;;0.60;0.60;;;6.70;99.90;;;;;;5069669;28;20200;-74
2022/10/18 01:45:40;;;;;;;0.52;0.52;;;6.60;99.90;;;;;;5093064;28;20263;-74
2022/10/18 01:48:07;;;;;;;0.60;0.60;;;6.60;99.90;;;;;;5114970;28;20191;-74
2022/10/18 01:50:34;;;;;;;0.57;0.57;;;6.60;99.90;;;;;;5116463;28;20187;-74
2022/10/18 01:53:00;;;;;;;0.60;0.60;;;6.50;99.90;;;;;;5116823;28;20198;-73
2022/10/18 01:55:39;;;;;;;0.60;0.60;;;6.50;99.90;;;;;;5116473;28;20211;-74
2022/10/18 01:58:15;;;;;;;0.50;0.50;;;6.50;99.90;;;;;;5116568;28;20219;-74
2022/10/18 02:00:41;;;;;;;0.50;0.50;;;6.50;99.90;;;;;;5115223;28;20598;-74
2022/10/18 02:03:22;;;;;;;0.60;0.60;;;6.50;99.90;;;;;;5116406;28;20244;-71
2022/10/18 02:05:58;;;;;;;0.60;0.60;;;6.50;99.90;;;;;;5115080;28;20693;-74
2022/10/18 02:08:56;;;;;;;0.50;0.50;;;6.50;99.90;;;;;;5116115;28;20271;-74
2022/10/18 02:11:22;;;;;;;0.52;0.52;;;6.50;99.90;;;;;;5089738;28;20726;-73
2022/10/18 02:13:59;;;;;;;0.60;0.60;;;6.50;99.90;;;;;;5116214;28;20320;-74
2022/10/18 02:16:41;;;;;;;0.70;0.70;;;6.50;99.90;;;;;;5116256;28;20666;-73
2022/10/18 02:19:16;;;;;;;0.60;0.60;;;6.50;99.90;;;;;;5116334;28;20723;-74
2022/10/18 02:21:44;;;;;;;0.60;0.60;;;6.40;99.90;;;;;;5114788;28;20831;-74
2022/10/18 02:24:13;;;;;;;0.60;0.60;;;6.40;99.90;;;;;;5115792;28;20192;-73
2022/10/18 02:26:39;;;;;;;0.60;0.60;;;6.40;99.90;;;;;;5115930;28;20228;-73
2022/10/18 02:29:05;;;;;;;0.60;0.60;;;6.40;99.90;;;;;;5115968;28;20206;-74
2022/10/18 02:31:42;;;;;;;0.60;0.60;;;6.30;99.90;;;;;;5115724;28;20658;-74
2022/10/18 02:34:23;;;;;;;0.63;0.63;;;6.30;99.90;;;;;;5115886;28;20335;-74
2022/10/18 02:36:54;;;;;;;0.50;0.50;;;6.30;99.90;;;;;;5115601;28;20211;-73
2022/10/18 02:39:28;;;;;;;0.60;0.60;;;6.30;99.90;;;;;;5115737;28;20199;-73
2022/10/18 02:41:54;;;;;;;0.60;0.60;;;6.30;99.90;;;;;;5115640;28;20673;-74
2022/10/18 02:44:20;;;;;;;0.60;0.60;;;6.30;99.90;;;;;;5101667;28;20587;-73
2022/10/18 02:46:46;;;;;;;0.50;0.50;;;6.30;99.90;;;;;;5095179;28;20291;-74
2022/10/18 02:49:12;;;;;;;0.50;0.50;;;6.30;99.90;;;;;;5095330;28;20322;-74
2022/10/18 02:51:38;;;;;;;0.70;0.70;;;6.30;99.90;;;;;;5094938;28;20275;-74
2022/10/18 02:54:04;;;;;;;0.60;0.60;;;6.30;99.90;;;;;;5095271;28;20192;-74
2022/10/18 02:56:29;;;;;;;0.52;0.52;;;6.30;99.90;;;;;;5095026;28;20197;-73
2022/10/18 02:58:55;;;;;;;0.57;0.57;;;6.30;99.90;;;;;;5094523;28;20207;-74
2022/10/18 03:01:21;;;;;;;0.60;0.60;;;6.30;99.90;;;;;;5105612;28;20206;-73
2022/10/18 03:03:47;;;;;;;0.50;0.50;;;6.30;99.90;;;;;;5114465;28;20195;-73
2022/10/18 03:06:13;;;;;;;0.60;0.60;;;6.30;99.90;;;;;;5123370;27;20669;-73
2022/10/18 03:08:38;;;;;;;0.55;0.55;;;6.30;99.90;;;;;;5135664;27;20248;-73
2022/10/18 03:11:04;;;;;;;0.50;0.50;;;6.30;99.90;;;;;;5135947;27;20207;-74
2022/10/18 03:13:30;;;;;;;0.57;0.57;;;6.30;99.90;;;;;;5135617;27;20214;-73
2022/10/18 03:15:56;;;;;;;0.60;0.60;;;6.30;99.90;;;;;;5117754;27;20196;-74
2022/10/18 03:18:21;;;;;;;0.60;0.60;;;6.40;99.90;;;;;;5114921;28;20223;-74
2022/10/18 03:20:47;;;;;;;0.75;0.75;;;6.40;99.90;;;;;;5113788;28;20231;-74
2022/10/18 03:23:12;;;;;;;0.40;0.40;;;6.40;99.90;;;;;;5114957;28;20232;-74
2022/10/18 03:25:38;;;;;;;0.60;0.60;;;6.40;99.90;;;;;;5113253;28;20262;-74
2022/10/18 03:28:04;;;;;;;0.52;0.52;;;6.40;99.90;;;;;;5114952;28;20192;-74
2022/10/18 03:30:29;;;;;;;0.60;0.60;;;6.40;99.90;;;;;;5113227;28;20196;-73
2022/10/18 03:32:55;;;;;;;0.50;0.50;;;6.50;99.90;;;;;;5114918;28;20191;-74
2022/10/18 03:35:21;;;;;;;0.50;0.50;;;6.40;99.90;;;;;;5113312;28;20199;-73
2022/10/18 03:37:47;;;;;;;0.50;0.50;;;6.40;99.90;;;;;;5114537;28;20199;-74
2022/10/18 03:40:13;;;;;;;0.52;0.52;;;6.50;99.90;;;;;;5114757;28;20195;-74
2022/10/18 03:42:38;;;;;;;0.50;0.50;;;6.50;99.90;;;;;;5114448;28;20286;-74
2022/10/18 03:45:04;;;;;;;0.50;0.50;;;6.50;99.90;;;;;;5112898;28;20205;-73
2022/10/18 03:47:30;;;;;;;0.60;0.60;;;6.50;99.90;;;;;;5114431;28;20267;-75
2022/10/18 03:49:56;;;;;;;0.50;0.50;;;6.50;99.90;;;;;;5113275;28;20222;-74
2022/10/18 03:52:21;;;;;;;0.60;0.60;;;6.50;99.90;;;;;;5113006;28;20199;-74
2022/10/18 03:54:47;;;;;;;0.50;0.50;;;6.60;99.90;;;;;;5114160;28;20217;-74
2022/10/18 03:57:13;;;;;;;1.95;0.75;;;6.60;99.90;;;;;;5114444;28;20236;-74
2022/10/18 03:59:38;;;;;;;0.70;0.70;;;6.60;99.90;;;;;;5112883;28;20256;-74
2022/10/18 04:02:04;;;;;;;0.55;0.55;;;6.60;99.90;;;;;;5118966;27;20240;-73
2022/10/18 04:04:29;;;;;;;0.50;0.50;;;6.60;99.90;;;;;;5133169;27;20190;-74
2022/10/18 04:07:33;;;;;;;0.60;0.60;;;6.50;99.90;;;;;;5134730;27;20289;-74
2022/10/18 04:10:36;;;;;;;2.60;1.17;;;6.50;99.90;;;;;;5133763;27;20191;-75
2022/10/18 04:13:39;;;;;;;0.60;0.60;;;6.40;99.90;;;;;;5092474;28;20211;-74
2022/10/18 04:16:42;;;;;;;0.60;0.60;;;6.50;99.90;;;;;;5093668;28;20199;-75
2022/10/18 04:19:45;;;;;;;0.60;0.60;;;6.50;99.90;;;;;;5093595;28;20196;-74
2022/10/18 04:22:48;;;;;;;0.47;0.47;;;6.50;99.90;;;;;;5092143;28;20249;-75
2022/10/18 04:25:52;;;;;;;0.50;0.50;;;6.50;99.90;;;;;;5091787;28;20239;-75
2022/10/18 04:28:55;;;;;;;0.60;0.60;;;6.50;99.90;;;;;;5093272;28;20196;-74
2022/10/18 04:31:58;;;;;;;0.50;0.50;;;6.50;99.90;;;;;;5093042;28;20662;-74
2022/10/18 04:35:01;;;;;;;0.75;0.75;;;6.50;99.90;;;;;;5110776;28;20567;-74
2022/10/18 04:38:04;;;;;;;0.60;0.60;;;6.50;99.90;;;;;;5113548;28;20199;-75
2022/10/18 04:41:08;;;;;;;0.43;0.43;;;6.50;99.90;;;;;;5113313;28;20199;-74
2022/10/18 04:44:11;;;;;;;0.63;0.63;;;6.50;99.90;;;;;;5106088;27;20199;-75
2022/10/18 04:47:13;;;;;;;0.50;0.50;;;6.50;99.90;;;;;;5092792;28;20204;-75
2022/10/18 04:50:17;;;;;;;0.65;0.65;;;6.60;99.90;;;;;;5092838;28;20196;-74
2022/10/18 04:53:19;;;;;;;0.60;0.60;;;6.60;99.90;;;;;;5107092;28;20268;-75
2022/10/18 04:56:23;;;;;;;0.50;0.50;;;6.60;99.90;;;;;;5111910;28;20203;-74
2022/10/18 04:59:26;;;;;;;0.60;0.60;;;6.60;99.90;;;;;;5111695;28;21103;-74
2022/10/18 05:02:29;;;;;;;0.40;0.40;;;6.60;99.90;;;;;;5113031;28;20715;-74
2022/10/18 05:05:32;;;;;;;1.00;1.00;;;6.60;99.90;;;;;;5113192;28;20203;-74
2022/10/18 05:08:35;;;;;;;0.55;0.55;;;6.60;99.90;;;;;;5111624;28;20664;-75
2022/10/18 05:11:39;;;;;;;0.50;0.50;;;6.60;99.90;;;;;;5111806;28;20679;-74
2022/10/18 05:14:42;;;;;;;0.60;0.60;;;6.60;99.90;;;;;;5113058;28;20645;-74
2022/10/18 05:17:45;;;;;;;0.50;0.50;;;6.60;99.90;;;;;;5111768;28;20295;-74
2022/10/18 05:20:48;;;;;;;0.52;0.52;;;6.60;99.90;;;;;;5112949;28;20721;-74
2022/10/18 05:23:51;;;;;;;0.70;0.70;;;6.60;99.90;;;;;;5112966;28;20191;-72
2022/10/18 05:26:54;;;;;;;0.50;0.50;;;6.60;99.90;;;;;;5112562;28;20223;-72
2022/10/18 05:29:57;;;;;;;0.40;0.40;;;6.60;99.90;;;;;;5112498;28;20191;-74
2022/10/18 05:33:00;;;;;;;0.60;0.60;;;6.60;99.90;;;;;;5112575;28;20641;-73
2022/10/18 05:36:03;;;;;;;0.60;0.60;;;6.60;99.90;;;;;;5112599;28;20609;-74
2022/10/18 05:39:06;;;;;;;0.40;0.40;;;6.60;99.90;;;;;;5112741;28;20197;-73
2022/10/18 05:42:09;;;;;;;0.60;0.60;;;6.60;99.90;;;;;;5112861;28;20650;-74
2022/10/18 05:45:12;;;;;;;0.50;0.50;;;6.70;99.90;;;;;;5096688;28;20203;-74
2022/10/18 05:48:15;;;;;;;0.70;0.70;;;6.70;99.90;;;;;;5095467;28;20699;-74
2022/10/18 05:51:19;;;;;;;0.50;0.50;;;6.70;99.90;;;;;;5113139;28;20198;-74
2022/10/18 05:54:22;;;;;;;0.60;0.60;;;6.70;99.90;;;;;;5112755;28;20187;-75
2022/10/18 05:57:24;;;;;;;0.70;0.65;;;6.70;99.90;;;;;;5092208;28;20203;-74
2022/10/18 06:00:28;;;;;;;0.50;0.50;;;6.80;99.90;;;;;;5090876;28;20199;-74
2022/10/18 06:03:31;;;;;;;0.60;0.60;;;6.70;99.90;;;;;;5094443;28;20195;-73
2022/10/18 06:06:34;;;;;;;2.25;1.77;;;6.70;99.90;;;;;;5112528;28;20203;-74
2022/10/18 06:09:37;;;;;;;0.60;0.60;;;6.80;99.90;;;;;;5112565;28;20206;-73
2022/10/18 06:12:40;;;;;;;0.60;0.60;;;6.80;99.90;;;;;;5111197;28;20195;-75
2022/10/18 06:15:44;;;;;;;0.70;0.70;;;6.80;99.90;;;;;;5111137;28;20207;-74
2022/10/18 06:18:47;;;;;;;0.50;0.50;;;6.80;99.90;;;;;;5112480;28;20195;-74
2022/10/18 06:21:50;;;;;;;0.50;0.50;;;6.80;99.90;;;;;;5112373;28;20200;-74
2022/10/18 06:24:54;;;;;;;0.50;0.50;;;6.80;99.90;;;;;;5110933;28;20285;-75
2022/10/18 06:27:57;;;;;;;0.60;0.60;;;6.80;99.90;;;;;;5112232;28;20199;-74
2022/10/18 06:30:59;;;;;;;1.20;1.05;;;6.80;99.90;;;;;;5111953;28;20286;-74
2022/10/18 06:34:03;;;;;;;0.60;0.60;;;6.80;99.90;;;;;;5112779;28;20191;-74
2022/10/18 06:37:07;;;;;;;0.60;0.60;;;6.90;99.90;;;;;;5115690;28;20203;-73
2022/10/18 06:40:10;;;;;;;0.60;0.60;;;6.90;99.90;;;;;;5114484;28;20252;-74
2022/10/18 06:43:13;;;;;;;0.88;0.88;;;7.00;99.90;;;;;;5114454;28;20303;-74
2022/10/18 06:46:16;;;;;;;0.90;0.90;;;7.00;99.90;;;;;;5095198;28;20247;-73
2022/10/18 06:49:19;;;;;;;0.70;0.70;;;7.00;99.90;;;;;;5095233;28;20191;-74
2022/10/18 06:52:24;;;;;;;0.80;0.80;;;7.00;99.90;;;;;;5120972;27;20225;-74
2022/10/18 06:55:27;;;;;;;0.50;0.50;;;7.00;99.90;;;;;;5136241;27;20201;-74
2022/10/18 06:58:30;;;;;;;0.57;0.57;;;7.00;99.90;;;;;;5134961;27;20199;-74
2022/10/18 07:01:33;;;;;;;0.50;0.50;;;7.00;99.90;;;;;;5117890;27;20230;-74
2022/10/18 07:04:36;;;;;;;0.50;0.50;;;7.00;99.90;;;;;;5114048;28;20199;-74
2022/10/18 07:07:40;;;;;;;0.50;0.50;;;7.00;99.90;;;;;;5113878;28;20305;-74
2022/10/18 07:10:43;;;;;;;0.60;0.60;;;7.10;99.90;;;;;;5114074;28;20290;-74
2022/10/18 07:13:46;;;;;;;0.55;0.55;;;7.10;99.90;;;;;;5115322;28;20191;-74
2022/10/18 07:16:49;;;;;;;0.50;0.50;;;7.10;99.90;;;;;;5115313;28;20658;-74
2022/10/18 07:19:52;;;;;;;0.50;0.50;;;7.10;99.90;;;;;;5115125;27;20717;-74
2022/10/18 07:22:56;;;;;;;0.70;0.70;;;7.20;99.90;;;;;;5113614;28;20211;-74
2022/10/18 07:26:00;;;;;;;0.60;0.60;;;7.20;99.90;;;;;;5114613;28;20227;-74
2022/10/18 07:29:04;;;;;;;1.10;1.02;;;7.20;99.90;;;;;;5113472;28;20238;-74
2022/10/18 07:32:06;;;;;;;3.80;1.77;;;7.20;99.90;;;;;;5114727;27;20218;-74
2022/10/18 07:35:10;;;;;;;0.60;0.60;;;7.30;99.90;;;;;;5114573;28;20281;-75
2022/10/18 07:38:13;;;;;;;1.20;0.85;;;7.40;99.90;;;;;;5114577;28;20679;-73
2022/10/18 07:41:16;;;;;;;0.60;0.60;;;7.40;99.90;;;;;;5114557;28;20681;-73
2022/10/18 07:44:19;;;;;;;0.93;0.85;;;7.40;99.90;;;;;;5106166;28;20564;-74
2022/10/18 07:47:22;;;;;;;0.52;0.52;;;7.50;99.90;;;;;;5098586;27;20208;-74
2022/10/18 07:50:25;;;;;;;0.98;0.93;;;7.50;99.90;;;;;;5135102;27;20190;-74
2022/10/18 07:53:28;;;;;;;0.60;0.60;;;7.50;99.90;;;;;;5135048;27;20216;-74
2022/10/18 07:56:31;;;;;;;0.52;0.52;;;7.60;99.90;;;;;;5128106;27;20195;-73
2022/10/18 07:59:34;;;;;;;0.60;0.60;;;7.60;99.90;;;;;;5114557;28;20654;-74
2022/10/18 08:02:37;;;;;;;0.95;0.90;;;7.70;99.90;;;;;;5112830;28;20199;-74
2022/10/18 08:05:40;;;;;;;1.67;1.33;;;7.70;99.90;;;;;;5114143;28;20199;-74
2022/10/18 08:08:43;;;;;;;3.05;2.60;;;7.80;99.90;;;;;;5114048;28;20195;-74
2022/10/18 08:11:46;;;;;;;0.55;0.55;;;7.90;99.90;;;;;;5114045;28;20194;-73
2022/10/18 08:14:49;;;;;;;1.85;1.70;;;8.00;99.90;;;;;;5114192;28;20236;-74
2022/10/18 08:17:52;;;;;;;1.65;1.23;;;8.00;99.90;;;;;;5113931;28;20191;-74
2022/10/18 08:20:55;;;;;;;2.17;1.20;;;7.90;99.90;;;;;;5114172;28;20203;-74
2022/10/18 08:23:58;;;;;;;0.50;0.50;;;7.90;99.90;;;;;;5113821;28;20557;-74
2022/10/18 08:27:02;;;;;;;0.50;0.50;;;8.00;99.90;;;;;;5113338;27;20224;-74
2022/10/18 08:30:05;;;;;;;0.50;0.50;;;8.00;99.90;;;;;;5113653;28;20191;-74
2022/10/18 08:33:08;;;;;;;0.57;0.57;;;8.00;99.90;;;;;;5112185;28;20210;-74
2022/10/18 08:36:11;;;;;;;0.50;0.50;;;8.00;99.90;;;;;;5113368;28;20199;-74
2022/10/18 08:39:14;;;;;;;0.60;0.60;;;7.90;99.90;;;;;;5113400;27;20196;-74
2022/10/18 08:42:17;;;;;;;0.50;0.50;;;7.90;99.90;;;;;;5111985;28;20199;-74
2022/10/18 08:45:20;;;;;;;0.88;0.88;;;8.00;99.90;;;;;;5129874;27;20202;-74
2022/10/18 08:48:23;;;;;;;0.95;0.95;;;8.00;99.90;;;;;;5134047;27;20293;-74
2022/10/18 08:51:27;;;;;;;1.25;1.15;;;8.00;99.90;;;;;;5134054;27;20376;-74
2022/10/18 08:54:30;;;;;;;0.50;0.50;;;8.10;99.90;;;;;;5093150;28;20200;-73
2022/10/18 08:57:33;;;;;;;0.60;0.60;;;8.30;99.90;;;;;;5091457;28;20239;-73
2022/10/18 09:00:36;;;;;;;0.60;0.60;;;8.30;99.90;;;;;;5093105;28;20196;-74
2022/10/18 09:03:39;;;;;;;0.77;0.77;;;8.40;99.90;;;;;;5091951;28;20227;-74
2022/10/18 09:06:42;;;;;;;0.50;0.50;;;8.50;99.90;;;;;;5092609;28;20203;-73
2022/10/18 09:09:45;;;;;;;0.60;0.60;;;8.70;99.90;;;;;;5092610;28;20196;-74
2022/10/18 09:12:48;;;;;;;0.70;0.70;;;8.80;99.90;;;;;;5110098;28;20191;-73
2022/10/18 09:15:51;;;;;;;0.55;0.55;;;8.90;99.90;;;;;;5112992;28;20489;-74
2022/10/18 09:18:56;;;;;;;3.05;1.45;;;9.00;99.90;;;;;;5113071;27;20202;-73
2022/10/18 09:21:59;;;;;;;0.57;0.57;;;9.10;99.90;;;;;;5111506;28;20272;-74
2022/10/18 09:25:02;;;;;;;0.68;0.68;;;9.10;99.90;;;;;;5111290;28;20211;-73
2022/10/18 09:28:05;;;;;;;0.70;0.70;;;9.10;99.90;;;;;;5112830;28;20199;-73
2022/10/18 09:31:08;;;;;;;0.60;0.60;;;9.20;99.90;;;;;;5111423;28;20226;-74
2022/10/18 09:34:11;;;;;;;0.60;0.60;;;9.30;99.90;;;;;;5112834;28;20191;-74
2022/10/18 09:37:15;;;;;;;0.55;0.55;;;9.30;99.90;;;;;;5112781;28;20191;-74
2022/10/18 09:40:18;;;;;;;1.80;1.05;;;9.50;99.90;;;;;;5111157;28;20213;-74
2022/10/18 09:43:21;;;;;;;5.30;2.58;;;9.50;99.90;;;;;;5111001;28;20259;-74
2022/10/18 09:46:24;;;;;;;0.60;0.60;;;9.60;99.90;;;;;;5112643;28;20203;-73
2022/10/18 09:49:27;;;;;;;0.60;0.60;;;9.70;99.90;;;;;;5112629;28;20191;-74
2022/10/18 09:52:30;;;;;;;2.15;1.17;;;9.80;99.90;;;;;;5112830;28;20195;-74
2022/10/18 09:55:33;;;;;;;0.68;0.68;;;9.80;99.90;;;;;;5112749;28;20630;-75
2022/10/18 09:58:36;;;;;;;0.40;0.40;;;9.90;99.90;;;;;;5112848;28;20188;-75
2022/10/18 10:01:39;;;;;;;0.63;0.63;;;10.00;99.90;;;;;;5113153;28;20597;-74
2022/10/18 10:04:42;;;;;;;0.52;0.52;;;10.10;99.90;;;;;;5112967;28;20222;-74
2022/10/18 10:07:46;;;;;;;0.70;0.70;;;10.20;99.90;;;;;;5112512;28;20239;-75
2022/10/18 10:10:49;;;;;;;0.60;0.60;;;10.10;99.90;;;;;;5116240;28;20677;-74
2022/10/18 10:13:52;;;;;;;0.60;0.60;;;9.90;99.90;;;;;;5116384;28;20707;-74
2022/10/18 10:16:55;;;;;;;0.50;0.50;;;9.80;99.90;;;;;;5115055;28;20195;-72
2022/10/18 10:19:59;;;;;;;0.70;0.70;;;9.60;99.90;;;;;;5094539;28;20212;-74
2022/10/18 10:23:02;;;;;;;0.55;0.55;;;9.50;99.90;;;;;;5094383;28;20200;-75
2022/10/18 10:26:05;;;;;;;0.60;0.60;;;9.50;99.90;;;;;;5095434;28;20231;-75
2022/10/18 10:29:08;;;;;;;0.60;0.60;;;9.50;99.90;;;;;;5095496;28;20196;-74
2022/10/18 10:32:11;;;;;;;0.50;0.50;;;9.40;99.90;;;;;;5095571;28;20203;-74
2022/10/18 10:35:14;;;;;;;0.47;0.47;;;9.50;99.90;;;;;;5095524;28;20279;-74
2022/10/18 10:38:17;;;;;;;0.70;0.70;;;9.40;99.90;;;;;;5094564;28;20208;-74
2022/10/18 10:41:20;;;;;;;0.60;0.60;;;9.50;99.90;;;;;;5095413;28;20204;-74
2022/10/18 10:44:23;;;;;;;0.50;0.50;;;9.80;99.90;;;;;;5099200;28;20226;-74
2022/10/18 10:47:27;;;;;;;0.60;0.60;;;9.80;99.90;;;;;;5093936;28;20223;-73
2022/10/18 10:50:30;;;;;;;0.60;0.60;;;9.90;99.90;;;;;;5095417;28;20192;-74
2022/10/18 10:53:34;;;;;;;0.68;0.65;;;10.00;99.90;;;;;;5094177;28;20685;-74
2022/10/18 10:56:36;;;;;;;1.00;1.00;;;10.10;99.90;;;;;;5095394;28;20654;-74
2022/10/18 10:59:39;;;;;;;0.52;0.52;;;10.30;99.90;;;;;;5095322;28;20188;-74
2022/10/18 11:02:42;;;;;;;0.57;0.57;;;10.40;99.90;;;;;;5095039;28;20196;-74
2022/10/18 11:05:45;;;;;;;0.50;0.50;;;10.70;99.90;;;;;;5095156;28;20239;-74
2022/10/18 11:08:50;;;;;;;0.60;0.60;;;10.80;99.90;;;;;;5114201;28;20227;-74
2022/10/18 11:11:53;;;;;;;0.60;0.60;;;10.90;99.90;;;;;;5115262;28;20203;-75
2022/10/18 11:14:57;;;;;;;0.60;0.60;;;10.80;99.90;;;;;;5113663;28;20199;-74
2022/10/18 11:18:00;;;;;;;0.47;0.47;;;10.70;99.90;;;;;;5114961;28;20286;-74
2022/10/18 11:21:06;;;;;;;0.50;0.50;;;10.50;99.90;;;;;;5113718;28;20653;-73
2022/10/18 11:24:10;;;;;;;0.60;0.60;;;10.50;99.90;;;;;;5113707;28;20191;-75
2022/10/18 11:27:14;;;;;;;0.60;0.60;;;10.50;99.90;;;;;;5114921;28;20234;-74
2022/10/18 11:30:17;;;;;;;0.60;0.60;;;10.60;99.90;;;;;;5114820;27;20218;-75
2022/10/18 11:33:20;;;;;;;0.50;0.50;;;10.80;99.90;;;;;;5125264;27;20720;-74
2022/10/18 11:36:23;;;;;;;0.60;0.60;;;10.70;99.90;;;;;;5134041;27;20258;-74
2022/10/18 11:39:27;;;;;;;0.50;0.50;;;10.70;99.90;;;;;;5135327;27;20210;-75
2022/10/18 11:42:30;;;;;;;0.50;0.50;;;10.70;99.90;;;;;;5118724;27;20211;-75
2022/10/18 11:45:33;;;;;;;0.50;0.50;;;10.70;99.90;;;;;;5095782;28;20676;-75
2022/10/18 11:48:36;;;;;;;0.60;0.60;;;10.60;99.90;;;;;;5094076;28;20722;-73
2022/10/18 11:51:39;;;;;;;0.40;0.40;;;10.60;99.90;;;;;;5094077;28;20199;-74
2022/10/18 11:54:42;;;;;;;0.60;0.60;;;10.40;99.90;;;;;;5094204;28;20188;-75
2022/10/18 11:57:45;;;;;;;0.57;0.57;;;10.40;99.90;;;;;;5094140;28;20605;-75
2022/10/18 12:00:48;;;;;;;0.55;0.55;;;10.40;99.90;;;;;;5104605;28;20195;-75
2022/10/18 12:03:51;;;;;;;0.50;0.50;;;10.30;99.90;;;;;;5113213;28;20573;-75
2022/10/18 12:06:54;;;;;;;0.55;0.55;;;10.30;99.90;;;;;;5114713;28;20677;-74
2022/10/18 12:09:58;;;;;;;0.50;0.50;;;10.20;99.90;;;;;;5114478;28;20665;-74
2022/10/18 12:13:01;;;;;;;0.60;0.60;;;10.10;99.90;;;;;;5114491;28;20206;-74
2022/10/18 12:16:04;;;;;;;0.45;0.45;;;10.00;99.90;;;;;;5114362;28;20195;-74
2022/10/18 12:19:07;;;;;;;0.52;0.52;;;10.00;99.90;;;;;;5114345;28;20225;-73
2022/10/18 12:22:10;;;;;;;0.52;0.52;;;10.10;99.90;;;;;;5113532;28;20195;-74
2022/10/18 12:25:14;;;;;;;0.60;0.60;;;10.10;99.90;;;;;;5113610;28;20585;-73
2022/10/18 12:28:16;;;;;;;0.40;0.40;;;10.20;99.90;;;;;;5113715;28;20721;-74
2022/10/18 12:31:20;;;;;;;0.60;0.60;;;10.00;99.90;;;;;;5092506;28;20675;-75
2022/10/18 12:34:23;;;;;;;0.60;0.60;;;9.90;99.90;;;;;;5092071;28;20712;-75
2022/10/18 12:37:26;;;;;;;0.70;0.70;;;9.70;99.90;;;;;;5097022;28;20225;-74
2022/10/18 12:40:29;;;;;;;0.60;0.60;;;9.60;99.90;;;;;;5112354;28;20323;-75
2022/10/18 12:43:35;;;;;;;0.50;0.50;;;9.50;99.90;;;;;;5112072;28;20199;-75
2022/10/18 12:46:38;;;;;;;0.70;0.70;;;9.40;99.90;;;;;;5113525;28;20636;-74
2022/10/18 12:49:41;;;;;;;0.60;0.60;;;9.20;99.90;;;;;;5113262;28;20199;-74
2022/10/18 12:52:44;;;;;;;0.50;0.50;;;9.20;99.90;;;;;;5113213;28;20223;-74
2022/10/18 12:55:47;;;;;;;0.60;0.60;;;8.90;99.90;;;;;;5113187;28;20198;-73
2022/10/18 12:58:50;;;;;;;0.52;0.52;;;8.80;99.90;;;;;;5112042;28;20200;-74
2022/10/18 13:01:54;;;;;;;0.50;0.50;;;8.70;99.90;;;;;;5108619;28;20677;-74
2022/10/18 13:04:57;;;;;;;0.50;0.50;;;8.60;99.90;;;;;;5092738;28;20608;-73
2022/10/18 13:08:00;;;;;;;0.47;0.47;;;8.50;99.90;;;;;;5110549;27;20203;-74
2022/10/18 13:11:03;;;;;;;0.63;0.63;;;8.40;99.90;;;;;;5113188;28;20268;-74
2022/10/18 13:14:06;;;;;;;0.70;0.70;;;8.30;99.90;;;;;;5113012;28;20187;-74
2022/10/18 13:17:09;;;;;;;0.60;0.60;;;8.20;99.90;;;;;;5111595;28;20272;-74
2022/10/18 13:20:12;;;;;;;0.60;0.60;;;8.20;99.90;;;;;;5091119;28;20200;-73
2022/10/18 13:23:15;;;;;;;0.60;0.60;;;8.20;99.90;;;;;;5092377;28;20658;-74
2022/10/18 13:26:18;;;;;;;0.40;0.40;;;8.20;99.90;;;;;;5120706;27;20222;-75
2022/10/18 13:29:22;;;;;;;0.50;0.50;;;8.20;99.90;;;;;;5131977;27;20194;-73
2022/10/18 13:32:26;;;;;;;0.52;0.52;;;8.20;99.90;;;;;;5133439;27;20195;-74
2022/10/18 13:35:30;;;;;;;0.70;0.70;;;8.10;99.90;;;;;;5112559;28;20541;-75
2022/10/18 13:38:33;;;;;;;0.60;0.60;;;8.10;99.90;;;;;;5111615;28;20293;-74
2022/10/18 13:41:36;;;;;;;0.60;0.60;;;8.20;99.90;;;;;;5111545;28;20572;-74
2022/10/18 13:44:40;;;;;;;0.57;0.57;;;8.20;99.90;;;;;;5105814;28;20650;-74
2022/10/18 13:47:43;;;;;;;0.60;0.60;;;8.20;99.90;;;;;;5095294;28;20223;-74
2022/10/18 13:50:46;;;;;;;0.60;0.60;;;8.20;99.90;;;;;;5096527;28;20286;-74
2022/10/18 13:53:49;;;;;;;0.70;0.70;;;8.00;99.90;;;;;;5110513;28;20645;-75
2022/10/18 13:56:53;;;;;;;0.57;0.57;;;7.80;99.90;;;;;;5115177;28;20207;-74
2022/10/18 13:59:56;;;;;;;0.60;0.60;;;7.70;99.90;;;;;;5115337;28;20673;-73
2022/10/18 14:02:59;;;;;;;0.50;0.50;;;7.50;99.90;;;;;;5116309;28;20225;-74
2022/10/18 14:06:02;;;;;;;0.45;0.45;;;7.30;99.90;;;;;;5114328;28;20203;-74
2022/10/18 14:09:05;;;;;;;0.50;0.50;;;7.30;99.90;;;;;;5116498;28;20661;-75
2022/10/18 14:12:08;;;;;;;0.70;0.70;;;7.20;99.90;;;;;;5116412;28;20194;-74
2022/10/18 14:15:11;;;;;;;0.68;0.68;;;7.20;99.90;;;;;;5114858;28;20279;-75
2022/10/18 14:18:14;;;;;;;0.60;0.60;;;7.10;99.90;;;;;;5116286;28;20202;-74
2022/10/18 14:21:17;;;;;;;0.60;0.60;;;7.00;99.90;;;;;;5120015;27;20572;-75
2022/10/18 14:24:20;;;;;;;0.50;0.50;;;7.00;99.90;;;;;;5135249;27;20230;-74
2022/10/18 14:27:23;;;;;;;0.60;0.60;;;6.90;99.90;;;;;;5136491;27;20214;-75
2022/10/18 14:30:27;;;;;;;0.52;0.52;;;6.90;99.90;;;;;;5126809;27;20195;-74
2022/10/18 14:33:30;;;;;;;0.60;0.60;;;6.80;99.90;;;;;;5114914;28;20638;-74
2022/10/18 14:36:33;;;;;;;0.50;0.50;;;6.70;99.90;;;;;;5116172;28;20673;-75
2022/10/18 14:39:36;;;;;;;0.60;0.60;;;6.60;99.90;;;;;;5116220;28;20285;-74
2022/10/18 14:42:39;;;;;;;0.60;0.60;;;6.50;99.90;;;;;;5116011;28;20716;-74
2022/10/18 14:45:42;;;;;;;1.20;0.90;;;6.40;99.90;;;;;;5115636;28;20195;-74
2022/10/18 14:48:19;;;;;;;0.60;0.60;;;6.30;99.90;;;;;;5115799;27;20192;-75
2022/10/18 14:50:57;;;;;;;0.50;0.50;;;6.30;99.90;;;;;;5115849;28;20202;-74
2022/10/18 14:53:28;;;;;;;0.60;0.60;;;6.30;99.90;;;;;;5094480;28;20245;-74
2022/10/18 14:56:04;;;;;;;0.63;0.63;;;6.20;99.90;;;;;;5094076;28;20313;-74
2022/10/18 14:58:30;;;;;;;0.60;0.60;;;6.20;99.90;;;;;;5100992;28;20191;-74
2022/10/18 15:00:57;;;;;;;0.60;0.60;;;6.20;99.90;;;;;;5115682;28;20248;-74
2022/10/18 15:03:25;;;;;;;0.60;0.60;;;6.10;99.90;;;;;;5114019;28;20697;-73
2022/10/18 15:05:58;;;;;;;0.60;0.60;;;6.20;99.90;;;;;;5115308;28;20200;-74